Flugplatz Salzgitter-Schäferstuhl

Für EDVJ sind keine METAR/TAF Berichte vorhanden.
Es werden die Flugwettermeldungen vom Flugplatz Braunschweig Wolfsburg in 34 km Entfernung angezeigt.

Bericht für EDVE

vom 23.08. um 12:20 UTC

variable Windrichtung mit 3 kt

Sichtweite 10 km oder mehr

gute Sicht, keine Wolken < 5000 ft, keine CB, keine Wettererscheinungen (CAVOK)

Temperatur 27.0°C

Taupunkt 7.0°C

Luftfeuchtigkeit 28%

Luftdruck 1025 hPa

EDVE 231220Z VRB03KT CAVOK 27/07 Q1025

Prognose für EDVE

vom 23.08. um 00:00 UTC

Zwischen 00:00 UTC und 00:00 UTC

Wind 3 kt aus 60°

Sichtweite 10 km oder mehr

keine signifikanten Wettererscheinungen

keine Wolken

TAF EDVE 231100Z 2312/2321 06003KT CAVOK
Impressum